createdAt,value
2017-08-03T00:00:20.154Z,20.32
2017-08-03T00:01:20.420Z,20.35
2017-08-03T00:02:20.721Z,20.4
2017-08-03T00:03:20.704Z,20.33
2017-08-03T00:04:20.703Z,20.43
2017-08-03T00:05:20.371Z,20.38
2017-08-03T00:06:20.352Z,20.41
2017-08-03T00:07:20.638Z,20.49
2017-08-03T00:08:20.321Z,20.49
2017-08-03T00:09:20.608Z,20.47
2017-08-03T00:10:20.611Z,20.51
2017-08-03T00:11:20.581Z,20.52
2017-08-03T00:12:20.020Z,20.57
2017-08-03T00:13:19.950Z,20.55
2017-08-03T00:14:20.558Z,20.51
2017-08-03T00:15:20.537Z,20.51
2017-08-03T00:16:20.510Z,20.49
2017-08-03T00:17:20.512Z,20.51
2017-08-03T00:18:20.191Z,20.52
2017-08-03T00:19:20.488Z,20.51
2017-08-03T00:20:20.200Z,20.54
2017-08-03T00:21:20.571Z,20.67
2017-08-03T00:22:20.180Z,20.55
2017-08-03T00:23:20.429Z,20.51
2017-08-03T00:24:20.417Z,20.51
2017-08-03T00:25:20.080Z,20.55
2017-08-03T00:26:20.392Z,20.57
2017-08-03T00:27:20.082Z,20.55
2017-08-03T00:28:20.358Z,20.6
2017-08-03T00:29:20.352Z,20.51
2017-08-03T00:30:19.702Z,20.63
2017-08-03T00:31:20.312Z,20.51
2017-08-03T00:32:20.309Z,20.38
2017-08-03T00:33:19.971Z,20.31
2017-08-03T00:34:19.640Z,20.13
2017-08-03T00:35:20.339Z,20.04
2017-08-03T00:36:20.252Z,19.83
2017-08-03T00:37:19.601Z,19.77
2017-08-03T00:38:20.220Z,19.73
2017-08-03T00:39:20.260Z,19.67
2017-08-03T00:40:20.241Z,19.73
2017-08-03T00:41:20.230Z,19.88
2017-08-03T00:42:20.150Z,19.98
2017-08-03T00:43:19.883Z,19.98
2017-08-03T00:44:20.189Z,20.07
2017-08-03T00:45:19.810Z,20.11
2017-08-03T00:46:19.781Z,20.17
2017-08-03T00:47:19.782Z,20.18
2017-08-03T00:48:20.120Z,20.1
2017-08-03T00:49:19.752Z,20.11
2017-08-03T00:50:19.738Z,19.99
2017-08-03T00:51:19.721Z,19.89
2017-08-03T00:52:20.012Z,19.95
2017-08-03T00:53:19.371Z,19.93
2017-08-03T00:54:20.050Z,19.95
2017-08-03T00:55:19.672Z,19.91
2017-08-03T00:56:19.642Z,19.99
2017-08-03T00:57:19.933Z,20.03
2017-08-03T00:58:19.619Z,20.08
2017-08-03T00:59:19.610Z,20.14
2017-08-03T01:00:19.578Z,20.2
2017-08-03T01:01:19.867Z,20.17
2017-08-03T01:02:19.860Z,20.22
2017-08-03T01:03:19.543Z,20.26
2017-08-03T01:04:19.838Z,20.29
2017-08-03T01:05:19.520Z,20.33
2017-08-03T01:06:19.491Z,20.31
2017-08-03T01:07:19.179Z,20.33
2017-08-03T01:08:19.484Z,20.35
2017-08-03T01:09:19.761Z,20.31
2017-08-03T01:10:19.762Z,20.35
2017-08-03T01:11:19.727Z,20.43
2017-08-03T01:12:19.411Z,20.44
2017-08-03T01:13:19.394Z,20.25
2017-08-03T01:14:19.380Z,20.31
2017-08-03T01:15:19.683Z,20.31
2017-08-03T01:16:19.051Z,20.23
2017-08-03T01:17:19.333Z,20.06
2017-08-03T01:18:19.653Z,20.1
2017-08-03T01:19:19.311Z,20.1
2017-08-03T01:20:19.309Z,20.04
2017-08-03T01:21:19.294Z,19.95
2017-08-03T01:22:19.277Z,20.08
2017-08-03T01:23:19.556Z,20.07
2017-08-03T01:24:19.238Z,19.99
2017-08-03T01:25:19.237Z,19.96
2017-08-03T01:26:19.219Z,19.89
2017-08-03T01:27:19.499Z,19.96
2017-08-03T01:28:19.192Z,19.96
2017-08-03T01:29:19.179Z,19.96
2017-08-03T01:30:18.840Z,19.96
2017-08-03T01:31:19.441Z,19.93
2017-08-03T01:32:19.441Z,19.8
2017-08-03T01:33:19.417Z,19.8
2017-08-03T01:34:19.093Z,19.61
2017-08-03T01:35:19.393Z,19.58
2017-08-03T01:36:19.072Z,19.66
2017-08-03T01:37:18.750Z,19.69
2017-08-03T01:38:19.351Z,19.67
2017-08-03T01:39:19.327Z,19.71
2017-08-03T01:40:19.318Z,19.58
2017-08-03T01:41:19.296Z,19.7
2017-08-03T01:42:19.293Z,19.63
2017-08-03T01:43:19.270Z,19.59
2017-08-03T01:44:19.261Z,19.62
2017-08-03T01:45:19.245Z,19.67
2017-08-03T01:46:19.232Z,19.74
2017-08-03T01:47:19.214Z,19.85
2017-08-03T01:48:18.901Z,19.83
2017-08-03T01:49:19.180Z,19.81
2017-08-03T01:50:18.873Z,19.78
2017-08-03T01:51:18.860Z,19.63
2017-08-03T01:52:19.140Z,19.61
2017-08-03T01:53:19.118Z,19.81
2017-08-03T01:54:19.120Z,19.8
2017-08-03T01:55:18.800Z,19.8
2017-08-03T01:56:18.771Z,19.85
2017-08-03T01:57:18.800Z,19.91
2017-08-03T01:58:18.751Z,19.8
2017-08-03T01:59:19.043Z,19.92
2017-08-03T02:00:19.019Z,19.86
2017-08-03T02:01:19.047Z,19.78
2017-08-03T02:02:18.680Z,19.56
2017-08-03T02:03:19.111Z,19.62
2017-08-03T02:04:18.339Z,19.53
2017-08-03T02:05:18.339Z,19.59
2017-08-03T02:06:18.980Z,19.73
2017-08-03T02:07:19.041Z,19.67
2017-08-03T02:08:18.921Z,19.62
2017-08-03T02:09:18.680Z,19.58
2017-08-03T02:10:18.572Z,19.67
2017-08-03T02:11:18.858Z,19.69
2017-08-03T02:12:18.920Z,19.7
2017-08-03T02:13:18.220Z,19.8
2017-08-03T02:14:18.842Z,19.78
2017-08-03T02:15:18.811Z,19.85
2017-08-03T02:16:18.180Z,19.71
2017-08-03T02:17:18.782Z,19.86
2017-08-03T02:18:18.540Z,19.8
2017-08-03T02:19:18.767Z,19.69
2017-08-03T02:20:18.438Z,19.52
2017-08-03T02:21:18.841Z,19.41
2017-08-03T02:22:18.391Z,19.31
2017-08-03T02:23:18.800Z,19.3
2017-08-03T02:24:18.670Z,19.25
2017-08-03T02:25:18.656Z,19.16
2017-08-03T02:26:18.352Z,19.15
2017-08-03T02:27:18.727Z,19.02
2017-08-03T02:28:18.340Z,19.21
2017-08-03T02:29:18.614Z,19.3
2017-08-03T02:30:18.630Z,19.34
2017-08-03T02:31:18.260Z,19.31
2017-08-03T02:32:18.649Z,19.4
2017-08-03T02:33:18.540Z,19.52
2017-08-03T02:34:18.221Z,19.53
2017-08-03T02:35:18.511Z,19.52
2017-08-03T02:36:18.631Z,19.58
2017-08-03T02:37:18.481Z,19.49
2017-08-03T02:38:18.152Z,19.48
2017-08-03T02:39:17.847Z,19.37
2017-08-03T02:40:18.120Z,19.33
2017-08-03T02:41:17.809Z,19.48
2017-08-03T02:42:18.400Z,19.38
2017-08-03T02:43:18.105Z,19.52
2017-08-03T02:44:18.060Z,19.52
2017-08-03T02:45:18.430Z,19.67
2017-08-03T02:46:18.042Z,19.67
2017-08-03T02:47:18.022Z,19.76
2017-08-03T02:48:18.309Z,19.83
2017-08-03T02:49:18.008Z,19.77
2017-08-03T02:50:17.980Z,19.85
2017-08-03T02:51:17.971Z,19.98
2017-08-03T02:52:18.270Z,19.91
2017-08-03T02:53:18.310Z,19.99
2017-08-03T02:54:18.236Z,19.95
2017-08-03T02:55:18.211Z,19.8
2017-08-03T02:56:18.211Z,19.86
2017-08-03T02:57:17.891Z,19.81
2017-08-03T02:58:18.169Z,19.83
2017-08-03T02:59:18.161Z,19.88
2017-08-03T03:00:17.851Z,19.85
2017-08-03T03:01:18.131Z,19.78
2017-08-03T03:02:18.100Z,19.67
2017-08-03T03:03:18.121Z,19.73
2017-08-03T03:04:18.081Z,19.69
2017-08-03T03:05:17.761Z,19.77
2017-08-03T03:06:17.751Z,19.83
2017-08-03T03:07:18.033Z,19.83
2017-08-03T03:08:18.030Z,19.77
2017-08-03T03:09:18.011Z,19.81
2017-08-03T03:10:18.011Z,19.81
2017-08-03T03:11:17.991Z,19.92
2017-08-03T03:12:17.665Z,19.92
2017-08-03T03:13:17.647Z,19.96
2017-08-03T03:14:17.932Z,19.99
2017-08-03T03:15:17.918Z,19.92
2017-08-03T03:16:17.911Z,19.8
2017-08-03T03:17:17.580Z,19.83
2017-08-03T03:18:17.568Z,19.62
2017-08-03T03:19:17.857Z,19.69
2017-08-03T03:20:17.240Z,19.63
2017-08-03T03:21:17.828Z,19.58
2017-08-03T03:22:17.508Z,19.66
2017-08-03T03:23:17.501Z,19.62
2017-08-03T03:24:17.489Z,19.58
2017-08-03T03:25:17.473Z,19.7
2017-08-03T03:26:17.443Z,19.56
2017-08-03T03:27:17.438Z,19.56
2017-08-03T03:28:17.419Z,19.52
2017-08-03T03:29:17.410Z,19.38
2017-08-03T03:30:17.400Z,19.48
2017-08-03T03:31:17.690Z,19.34
2017-08-03T03:32:17.361Z,19.21
2017-08-03T03:33:17.352Z,19.23
2017-08-03T03:34:17.019Z,19.21
2017-08-03T03:35:17.632Z,19.19
2017-08-03T03:36:17.299Z,19.18
2017-08-03T03:37:17.310Z,19.22
2017-08-03T03:38:17.590Z,19.21
2017-08-03T03:39:17.573Z,19.19
2017-08-03T03:40:17.542Z,19.19
2017-08-03T03:41:17.538Z,19.3
2017-08-03T03:42:17.519Z,19.19
2017-08-03T03:43:17.202Z,19.3
2017-08-03T03:44:17.191Z,19.22
2017-08-03T03:45:17.169Z,19.19
2017-08-03T03:46:17.162Z,19.3
2017-08-03T03:47:17.150Z,19.36
2017-08-03T03:48:17.429Z,19.3
2017-08-03T03:49:17.110Z,19.4
2017-08-03T03:50:17.403Z,19.41
2017-08-03T03:51:17.079Z,19.48
2017-08-03T03:52:17.482Z,19.55
2017-08-03T03:53:17.362Z,19.53
2017-08-03T03:54:17.353Z,19.53
2017-08-03T03:55:17.033Z,19.55
2017-08-03T03:56:17.018Z,19.44
2017-08-03T03:57:17.289Z,19.38
2017-08-03T03:58:17.070Z,19.53
2017-08-03T03:59:16.973Z,19.49
2017-08-03T04:00:17.282Z,19.51
2017-08-03T04:01:16.951Z,19.41
2017-08-03T04:02:16.931Z,19.41
2017-08-03T04:03:16.901Z,19.4
2017-08-03T04:04:16.880Z,19.37
2017-08-03T04:05:16.862Z,19.55
2017-08-03T04:06:16.914Z,19.52
2017-08-03T04:07:16.852Z,19.49
2017-08-03T04:08:17.140Z,19.55
2017-08-03T04:09:16.810Z,19.53
2017-08-03T04:10:16.889Z,19.56
2017-08-03T04:11:17.210Z,19.67
2017-08-03T04:12:16.842Z,19.69
2017-08-03T04:13:16.805Z,19.53
2017-08-03T04:14:17.098Z,19.55
2017-08-03T04:15:17.120Z,19.53
2017-08-03T04:16:16.479Z,19.58
2017-08-03T04:17:17.011Z,19.58
2017-08-03T04:18:17.002Z,19.67
2017-08-03T04:19:17.001Z,19.8
2017-08-03T04:20:16.973Z,19.8
2017-08-03T04:21:16.964Z,19.76
2017-08-03T04:22:16.621Z,19.88
2017-08-03T04:23:16.943Z,19.8
2017-08-03T04:24:16.926Z,19.81
2017-08-03T04:25:16.878Z,19.83
2017-08-03T04:26:16.880Z,19.74
2017-08-03T04:27:16.880Z,19.71
2017-08-03T04:28:16.539Z,19.71
2017-08-03T04:29:16.630Z,19.76
2017-08-03T04:30:16.800Z,19.73
2017-08-03T04:31:16.800Z,19.71
2017-08-03T04:32:16.791Z,19.74
2017-08-03T04:33:16.762Z,19.88
2017-08-03T04:34:16.739Z,19.86
2017-08-03T04:35:16.746Z,19.92
2017-08-03T04:36:16.724Z,19.93
2017-08-03T04:37:16.400Z,20.04
2017-08-03T04:38:16.400Z,20.01
2017-08-03T04:39:16.374Z,20.1
2017-08-03T04:40:16.657Z,20.08
2017-08-03T04:41:16.681Z,19.96
2017-08-03T04:42:16.341Z,20.06
2017-08-03T04:43:16.643Z,20.04
2017-08-03T04:44:16.290Z,20.1
2017-08-03T04:45:16.590Z,20.1
2017-08-03T04:46:16.581Z,20.1
2017-08-03T04:47:16.050Z,20.11
2017-08-03T04:48:16.547Z,20.22
2017-08-03T04:49:16.222Z,20.14
2017-08-03T04:50:16.205Z,20.17
2017-08-03T04:51:16.192Z,20.26
2017-08-03T04:52:16.180Z,20.26
2017-08-03T04:53:16.467Z,20.28
2017-08-03T04:54:16.457Z,20.28
2017-08-03T04:55:16.210Z,20.23
2017-08-03T04:56:16.470Z,20.23
2017-08-03T04:57:15.811Z,20.32
2017-08-03T04:58:16.403Z,20.2
2017-08-03T04:59:16.390Z,20.25
2017-08-03T05:00:16.360Z,20.2
2017-08-03T05:01:16.378Z,20.23
2017-08-03T05:02:15.731Z,20.26
2017-08-03T05:03:16.323Z,20.32
2017-08-03T05:04:16.311Z,20.32
2017-08-03T05:05:16.311Z,20.29
2017-08-03T05:06:16.301Z,20.32
2017-08-03T05:07:15.660Z,20.43
2017-08-03T05:08:16.262Z,20.47
2017-08-03T05:09:15.638Z,20.44
2017-08-03T05:10:15.932Z,20.36
2017-08-03T05:11:16.221Z,20.25
2017-08-03T05:12:15.910Z,20.26
2017-08-03T05:13:15.579Z,20.25
2017-08-03T05:14:16.165Z,20.31
2017-08-03T05:15:16.166Z,20.32
2017-08-03T05:16:15.540Z,20.33
2017-08-03T05:17:15.819Z,20.35
2017-08-03T05:18:15.821Z,20.26
2017-08-03T05:19:16.110Z,20.32
2017-08-03T05:20:16.094Z,20.31
2017-08-03T05:21:16.077Z,20.33
2017-08-03T05:22:16.075Z,20.2
2017-08-03T05:23:16.052Z,20.33
2017-08-03T05:24:15.729Z,20.32
2017-08-03T05:25:15.710Z,20.36
2017-08-03T05:26:15.711Z,20.43
2017-08-03T05:27:15.713Z,20.4
2017-08-03T05:28:15.979Z,20.4
2017-08-03T05:29:15.652Z,20.4
2017-08-03T05:30:15.640Z,20.4
2017-08-03T05:31:15.641Z,20.29
2017-08-03T05:32:15.601Z,20.33
2017-08-03T05:33:15.919Z,20.43
2017-08-03T05:34:15.588Z,20.31
2017-08-03T05:35:15.890Z,20.2
2017-08-03T05:36:15.561Z,20.08
2017-08-03T05:37:15.861Z,20.06
2017-08-03T05:38:15.539Z,20.16
2017-08-03T05:39:15.531Z,20.08
2017-08-03T05:40:15.512Z,20.13
2017-08-03T05:41:15.185Z,20.01
2017-08-03T05:42:15.777Z,20.03
2017-08-03T05:43:15.471Z,20.07
2017-08-03T05:44:15.464Z,20.08
2017-08-03T05:45:15.742Z,20.1
2017-08-03T05:46:15.734Z,20.07
2017-08-03T05:47:15.711Z,20.16
2017-08-03T05:48:15.103Z,20.06
2017-08-03T05:49:15.393Z,20.1
2017-08-03T05:50:15.691Z,20.1
2017-08-03T05:51:15.685Z,20.07
2017-08-03T05:52:15.636Z,20.16
2017-08-03T05:53:15.721Z,20.18
2017-08-03T05:54:15.633Z,20.1
2017-08-03T05:55:15.662Z,20.13
2017-08-03T05:56:15.573Z,20.18
2017-08-03T05:57:15.582Z,20.23
2017-08-03T05:58:15.571Z,20.13
2017-08-03T05:59:15.293Z,20.2
2017-08-03T06:00:15.523Z,20.18
2017-08-03T06:01:15.202Z,20.17
2017-08-03T06:02:15.492Z,20.28
2017-08-03T06:03:15.480Z,20.32
2017-08-03T06:04:15.161Z,20.36
2017-08-03T06:05:15.454Z,20.47
2017-08-03T06:06:15.433Z,20.4
2017-08-03T06:07:15.166Z,20.31
2017-08-03T06:08:15.172Z,20.38
2017-08-03T06:09:15.093Z,20.44
2017-08-03T06:10:15.413Z,20.38
2017-08-03T06:11:15.365Z,20.4
2017-08-03T06:12:15.058Z,20.35
2017-08-03T06:13:15.036Z,20.41
2017-08-03T06:14:15.336Z,20.38
2017-08-03T06:15:15.336Z,20.35
2017-08-03T06:16:14.992Z,20.4
2017-08-03T06:17:14.673Z,20.28
2017-08-03T06:18:14.964Z,20.35
2017-08-03T06:19:14.941Z,20.36
2017-08-03T06:20:14.923Z,20.33
2017-08-03T06:21:15.235Z,20.36
2017-08-03T06:22:15.420Z,20.43
2017-08-03T06:23:14.902Z,20.48
2017-08-03T06:24:14.874Z,20.38
2017-08-03T06:25:15.171Z,20.43
2017-08-03T06:26:14.985Z,20.47
2017-08-03T06:27:15.137Z,20.52
2017-08-03T06:28:14.944Z,20.44
2017-08-03T06:29:14.793Z,20.48
2017-08-03T06:30:14.786Z,20.48
2017-08-03T06:31:15.075Z,20.44
2017-08-03T06:32:15.063Z,20.41
2017-08-03T06:33:14.743Z,20.47
2017-08-03T06:34:15.036Z,20.49
2017-08-03T06:35:14.734Z,20.54
2017-08-03T06:36:14.497Z,20.47
2017-08-03T06:37:14.693Z,20.43
2017-08-03T06:38:14.394Z,20.48
2017-08-03T06:39:14.664Z,20.6
2017-08-03T06:40:14.644Z,20.55
2017-08-03T06:41:14.934Z,20.55
2017-08-03T06:42:14.637Z,20.64
2017-08-03T06:43:14.605Z,20.69
2017-08-03T06:44:14.646Z,20.73
2017-08-03T06:45:14.276Z,20.6
2017-08-03T06:46:14.565Z,20.69
2017-08-03T06:47:14.616Z,20.7
2017-08-03T06:48:14.530Z,20.72
2017-08-03T06:49:14.839Z,20.78
2017-08-03T06:50:14.516Z,20.84
2017-08-03T06:51:14.595Z,20.82
2017-08-03T06:52:14.780Z,20.81
2017-08-03T06:53:14.764Z,20.84
2017-08-03T06:54:14.547Z,20.7
2017-08-03T06:55:14.735Z,20.79
2017-08-03T06:56:14.424Z,20.95
2017-08-03T06:57:14.724Z,21.02
2017-08-03T06:58:14.703Z,20.94
2017-08-03T06:59:14.684Z,21.04
2017-08-03T07:00:14.674Z,21.07
2017-08-03T07:01:14.431Z,21.07
2017-08-03T07:02:14.666Z,21.17
2017-08-03T07:03:14.645Z,21.18
2017-08-03T07:04:14.623Z,21.28
2017-08-03T07:05:14.744Z,21.18
2017-08-03T07:06:14.611Z,21.19
2017-08-03T07:07:14.615Z,21.28
2017-08-03T07:08:14.576Z,21.37
2017-08-03T07:09:14.636Z,21.4
2017-08-03T07:10:14.546Z,21.41
2017-08-03T07:11:14.529Z,21.47
2017-08-03T07:12:13.886Z,21.46
2017-08-03T07:13:14.244Z,21.49
2017-08-03T07:14:14.577Z,21.54
2017-08-03T07:15:14.467Z,21.41
2017-08-03T07:16:14.464Z,21.43
2017-08-03T07:17:14.145Z,21.5
2017-08-03T07:18:14.425Z,21.58
2017-08-03T07:19:14.419Z,21.66
2017-08-03T07:20:14.112Z,21.58
2017-08-03T07:21:14.399Z,21.65
2017-08-03T07:22:14.446Z,21.7
2017-08-03T07:23:14.376Z,21.71
2017-08-03T07:24:14.047Z,21.86
2017-08-03T07:25:14.359Z,21.9
2017-08-03T07:26:14.384Z,22.05
2017-08-03T07:27:14.021Z,22.11
2017-08-03T07:28:14.358Z,22.03
2017-08-03T07:29:13.985Z,22.06
2017-08-03T07:30:14.374Z,22.22
2017-08-03T07:31:13.960Z,22.18
2017-08-03T07:32:13.947Z,22.18
2017-08-03T07:33:13.925Z,22.39
2017-08-03T07:34:14.276Z,22.35
2017-08-03T07:35:14.218Z,22.48
2017-08-03T07:36:14.215Z,22.54
2017-08-03T07:37:13.894Z,22.55
2017-08-03T07:38:13.557Z,22.62
2017-08-03T07:39:13.554Z,22.59
2017-08-03T07:40:13.845Z,22.58
2017-08-03T07:41:14.143Z,22.7
2017-08-03T07:42:14.140Z,22.67
2017-08-03T07:43:13.805Z,22.94
2017-08-03T07:44:13.806Z,22.88
2017-08-03T07:45:14.112Z,22.89
2017-08-03T07:46:13.785Z,22.89
2017-08-03T07:47:13.765Z,22.92
2017-08-03T07:48:14.064Z,22.85
2017-08-03T07:49:14.050Z,22.82
2017-08-03T07:50:14.033Z,22.82
2017-08-03T07:51:13.414Z,22.82
2017-08-03T07:52:14.011Z,22.88
2017-08-03T07:53:14.013Z,22.92
2017-08-03T07:54:13.982Z,23.04
2017-08-03T07:55:13.672Z,23.16
2017-08-03T07:56:13.981Z,23.36
2017-08-03T07:57:13.952Z,23.5
2017-08-03T07:58:13.340Z,23.55
2017-08-03T07:59:13.637Z,23.65
2017-08-03T08:00:13.928Z,23.73
2017-08-03T08:01:13.910Z,23.72
2017-08-03T08:02:13.911Z,23.99
2017-08-03T08:03:13.907Z,24.14
2017-08-03T08:04:13.583Z,24.27
2017-08-03T08:05:13.878Z,24.37
2017-08-03T08:06:13.870Z,24.42
2017-08-03T08:07:13.552Z,24.44
2017-08-03T08:08:13.527Z,24.49
2017-08-03T08:09:13.870Z,24.43
2017-08-03T08:10:13.249Z,24.43
2017-08-03T08:11:13.816Z,24.58
2017-08-03T08:12:13.803Z,24.8
2017-08-03T08:13:13.800Z,24.87
2017-08-03T08:14:13.775Z,24.85
2017-08-03T08:15:13.590Z,24.92
2017-08-03T08:16:13.471Z,24.8
2017-08-03T08:17:13.479Z,24.58
2017-08-03T08:18:13.759Z,24.52
2017-08-03T08:19:13.551Z,24.84
2017-08-03T08:20:13.418Z,24.82
2017-08-03T08:21:13.744Z,24.92
2017-08-03T08:22:13.428Z,24.93
2017-08-03T08:23:13.496Z,24.85
2017-08-03T08:24:13.709Z,24.81
2017-08-03T08:25:13.390Z,24.59
2017-08-03T08:26:13.680Z,24.64
2017-08-03T08:27:13.729Z,24.59
2017-08-03T08:28:13.358Z,24.7
2017-08-03T08:29:13.379Z,24.58
2017-08-03T08:30:13.358Z,24.58
2017-08-03T08:31:13.327Z,24.39
2017-08-03T08:32:13.631Z,24.24
2017-08-03T08:33:13.630Z,24.14
2017-08-03T08:34:13.608Z,24.19
2017-08-03T08:35:13.609Z,24.1
2017-08-03T08:36:13.610Z,23.97
2017-08-03T08:37:13.284Z,23.97
2017-08-03T08:38:13.589Z,23.92
2017-08-03T08:39:13.266Z,23.8
2017-08-03T08:40:13.366Z,23.88
2017-08-03T08:41:13.248Z,23.92
2017-08-03T08:42:13.250Z,23.81
2017-08-03T08:43:13.224Z,23.91
2017-08-03T08:44:12.988Z,23.82
2017-08-03T08:45:13.510Z,23.78
2017-08-03T08:46:13.483Z,23.84
2017-08-03T08:47:13.179Z,23.84
2017-08-03T08:48:13.466Z,24.02
2017-08-03T08:49:12.858Z,24
2017-08-03T08:50:13.441Z,23.89
2017-08-03T08:51:13.428Z,23.84
2017-08-03T08:52:13.427Z,23.82
2017-08-03T08:53:13.417Z,23.84
2017-08-03T08:54:13.127Z,23.96
2017-08-03T08:55:13.089Z,23.91
2017-08-03T08:56:13.383Z,23.84
2017-08-03T08:57:13.061Z,23.88
2017-08-03T08:58:13.368Z,23.87
2017-08-03T08:59:12.728Z,23.84
2017-08-03T09:00:13.340Z,23.97
2017-08-03T09:01:13.341Z,23.99
2017-08-03T09:02:12.713Z,23.84
2017-08-03T09:03:13.019Z,23.85
2017-08-03T09:04:12.677Z,23.85
2017-08-03T09:05:13.076Z,23.84
2017-08-03T09:06:13.377Z,23.77
2017-08-03T09:07:12.958Z,23.87
2017-08-03T09:08:13.257Z,23.8
2017-08-03T09:09:12.949Z,23.73
2017-08-03T09:10:13.241Z,23.72
2017-08-03T09:11:13.278Z,23.69
2017-08-03T09:12:12.909Z,23.8
2017-08-03T09:13:12.618Z,23.69
2017-08-03T09:14:12.640Z,23.81
2017-08-03T09:15:13.196Z,23.78
2017-08-03T09:16:13.205Z,23.66
2017-08-03T09:17:13.163Z,23.6
2017-08-03T09:18:13.198Z,23.44
2017-08-03T09:19:13.157Z,23.55
2017-08-03T09:20:13.172Z,23.63
2017-08-03T09:21:13.128Z,23.7
2017-08-03T09:22:13.089Z,23.72
2017-08-03T09:23:13.087Z,23.82
2017-08-03T09:24:13.088Z,24.12
2017-08-03T09:25:13.079Z,24.59
2017-08-03T09:26:13.063Z,25.05
2017-08-03T09:27:13.040Z,25.48
2017-08-03T09:28:12.718Z,25.94
2017-08-03T09:29:12.710Z,26.23
2017-08-03T09:30:12.399Z,26.38
2017-08-03T09:31:13.016Z,26.26
2017-08-03T09:32:12.698Z,25.84
2017-08-03T09:33:12.981Z,25.81
2017-08-03T09:34:12.985Z,25.94
2017-08-03T09:35:12.985Z,25.94
2017-08-03T09:36:12.967Z,26.06
2017-08-03T09:37:12.973Z,26.24
2017-08-03T09:38:12.666Z,26.15
2017-08-03T09:39:12.956Z,26.29
2017-08-03T09:40:12.947Z,26.24
2017-08-03T09:41:12.946Z,26.49
2017-08-03T09:42:12.930Z,26.33
2017-08-03T09:43:12.929Z,26.33
2017-08-03T09:44:12.628Z,26.23
2017-08-03T09:45:12.605Z,26.24
2017-08-03T09:46:12.905Z,26.1
2017-08-03T09:47:12.907Z,25.95
2017-08-03T09:48:12.899Z,25.82
2017-08-03T09:49:12.887Z,25.88
2017-08-03T09:50:12.270Z,25.76
2017-08-03T09:51:12.579Z,25.81
2017-08-03T09:52:12.687Z,26.1
2017-08-03T09:53:12.546Z,26.06
2017-08-03T09:54:12.247Z,26.11
2017-08-03T09:55:12.547Z,26.08
2017-08-03T09:56:12.548Z,26.08
2017-08-03T09:57:12.538Z,26.06
2017-08-03T09:58:12.867Z,25.77
2017-08-03T09:59:12.507Z,25.79
2017-08-03T10:00:12.878Z,25.86
2017-08-03T10:01:12.217Z,26.11
2017-08-03T10:02:12.793Z,26.24
2017-08-03T10:03:12.172Z,26.19
2017-08-03T10:04:12.161Z,26.08
2017-08-03T10:05:12.155Z,26.19
2017-08-03T10:06:12.757Z,26.24
2017-08-03T10:07:12.794Z,26.34
2017-08-03T10:08:12.439Z,26.33
2017-08-03T10:09:12.752Z,26.23
2017-08-03T10:10:12.441Z,26.41
2017-08-03T10:11:12.768Z,26.29
2017-08-03T10:12:12.128Z,26.17
2017-08-03T10:13:12.718Z,25.91
2017-08-03T10:14:12.696Z,25.89
2017-08-03T10:15:12.389Z,25.96
2017-08-03T10:16:12.379Z,25.82
2017-08-03T10:17:12.388Z,25.88
2017-08-03T10:18:12.357Z,25.77
2017-08-03T10:19:12.666Z,25.77
2017-08-03T10:20:12.666Z,25.59
2017-08-03T10:21:12.337Z,25.45
2017-08-03T10:22:12.332Z,25.45
2017-08-03T10:23:12.340Z,25.27
2017-08-03T10:24:12.615Z,25.37
2017-08-03T10:25:12.004Z,25.27
2017-08-03T10:26:12.297Z,25.21
2017-08-03T10:27:12.588Z,25.42
2017-08-03T10:28:12.287Z,25.52
2017-08-03T10:29:12.581Z,25.27
2017-08-03T10:30:12.258Z,25.14
2017-08-03T10:31:12.282Z,25
2017-08-03T10:32:12.557Z,25.12
2017-08-03T10:33:12.537Z,25.26
2017-08-03T10:34:12.223Z,25.37
2017-08-03T10:35:12.508Z,25.36
2017-08-03T10:36:12.509Z,25.1
2017-08-03T10:37:12.496Z,25.22
2017-08-03T10:38:12.489Z,25.39
2017-08-03T10:39:12.471Z,25.48
2017-08-03T10:40:12.459Z,25.47
2017-08-03T10:41:12.468Z,25.52
2017-08-03T10:42:12.468Z,25.56
2017-08-03T10:43:12.434Z,25.71
2017-08-03T10:44:12.498Z,25.62
2017-08-03T10:45:12.439Z,25.73
2017-08-03T10:46:12.099Z,25.54
2017-08-03T10:47:12.398Z,25.63
2017-08-03T10:48:12.397Z,25.39
2017-08-03T10:49:12.104Z,25.39
2017-08-03T10:50:12.488Z,25.27
2017-08-03T10:51:12.064Z,25.27
2017-08-03T10:52:12.057Z,25.22
2017-08-03T10:53:12.355Z,25.11
2017-08-03T10:54:12.038Z,24.99
2017-08-03T10:55:12.323Z,25.03
2017-08-03T10:56:12.320Z,24.99
2017-08-03T10:57:12.310Z,24.97
2017-08-03T10:58:12.300Z,24.87
2017-08-03T10:59:12.268Z,24.82
2017-08-03T11:00:11.971Z,24.87
2017-08-03T11:01:12.270Z,24.77
2017-08-03T11:02:11.952Z,24.77
2017-08-03T11:03:12.249Z,24.78
2017-08-03T11:04:12.233Z,24.8
2017-08-03T11:05:12.224Z,24.61
2017-08-03T11:06:11.898Z,24.61
2017-08-03T11:07:11.905Z,24.59
2017-08-03T11:08:12.202Z,24.51
2017-08-03T11:09:12.170Z,24.51
2017-08-03T11:10:12.160Z,24.55
2017-08-03T11:11:12.153Z,24.39
2017-08-03T11:12:12.147Z,24.36
2017-08-03T11:13:12.150Z,24.44
2017-08-03T11:14:11.821Z,24.4
2017-08-03T11:15:12.116Z,24.24
2017-08-03T11:16:12.119Z,24
2017-08-03T11:17:12.082Z,23.75
2017-08-03T11:18:12.072Z,23.7
2017-08-03T11:19:12.074Z,23.8
2017-08-03T11:20:12.071Z,23.66
2017-08-03T11:21:12.051Z,23.65
2017-08-03T11:22:12.046Z,23.65
2017-08-03T11:23:12.048Z,23.75
2017-08-03T11:24:12.039Z,23.77
2017-08-03T11:25:12.005Z,23.81
2017-08-03T11:26:12.003Z,23.87
2017-08-03T11:27:12.092Z,23.67
2017-08-03T11:28:11.982Z,23.54
2017-08-03T11:29:11.975Z,23.63
2017-08-03T11:30:11.941Z,23.6
2017-08-03T11:31:11.932Z,23.5
2017-08-03T11:32:11.931Z,23.44
2017-08-03T11:33:11.939Z,23.45
2017-08-03T11:34:11.592Z,23.55
2017-08-03T11:35:11.589Z,23.63
2017-08-03T11:36:11.873Z,23.65
2017-08-03T11:37:11.601Z,23.47
2017-08-03T11:38:11.840Z,23.36
2017-08-03T11:39:11.843Z,23.41
2017-08-03T11:40:11.523Z,23.28
2017-08-03T11:41:11.923Z,23.27
2017-08-03T11:42:11.505Z,23.21
2017-08-03T11:43:11.592Z,23.02
2017-08-03T11:44:11.830Z,23.06
2017-08-03T11:45:11.771Z,22.95
2017-08-03T11:46:11.760Z,22.85
2017-08-03T11:47:11.797Z,22.99
2017-08-03T11:48:11.732Z,22.92
2017-08-03T11:49:11.462Z,22.95
2017-08-03T11:50:11.776Z,23.02
2017-08-03T11:51:11.704Z,22.91
2017-08-03T11:52:11.694Z,23.06
2017-08-03T11:53:11.688Z,22.99
2017-08-03T11:54:11.360Z,23.03
2017-08-03T11:55:11.658Z,22.98
2017-08-03T11:56:11.330Z,22.91
2017-08-03T11:57:11.330Z,22.98
2017-08-03T11:58:11.648Z,22.95
2017-08-03T11:59:11.587Z,22.79
2017-08-03T12:00:11.599Z,22.76
2017-08-03T12:01:11.577Z,22.77
2017-08-03T12:02:11.258Z,22.82
2017-08-03T12:03:11.543Z,22.94
2017-08-03T12:04:11.241Z,23.1
2017-08-03T12:05:10.922Z,23.12
2017-08-03T12:06:11.531Z,23.14
2017-08-03T12:07:11.501Z,23.27
2017-08-03T12:08:11.501Z,23.36
2017-08-03T12:09:11.173Z,23.35
2017-08-03T12:10:11.470Z,23.51
2017-08-03T12:11:11.140Z,23.78
2017-08-03T12:12:11.241Z,24.15
2017-08-03T12:13:11.434Z,24.44
2017-08-03T12:14:11.131Z,24.69
2017-08-03T12:15:11.397Z,24.52
2017-08-03T12:16:11.398Z,24.71
2017-08-03T12:17:11.400Z,25.03
2017-08-03T12:18:11.071Z,25.3
2017-08-03T12:19:11.371Z,25.25
2017-08-03T12:20:11.060Z,25.14
2017-08-03T12:21:11.104Z,25.03
2017-08-03T12:22:10.721Z,25.25
2017-08-03T12:23:11.071Z,25.33
2017-08-03T12:24:11.012Z,25.14
2017-08-03T12:25:11.041Z,25.27
2017-08-03T12:26:11.000Z,25.47
2017-08-03T12:27:10.978Z,25.34
2017-08-03T12:28:11.030Z,25.39
2017-08-03T12:29:11.011Z,25.71
2017-08-03T12:30:11.044Z,26.07
2017-08-03T12:31:10.940Z,26.34
2017-08-03T12:32:10.921Z,26.34
2017-08-03T12:33:11.319Z,26.37
2017-08-03T12:34:11.219Z,26.57
2017-08-03T12:35:11.267Z,26.74
2017-08-03T12:36:10.917Z,26.39
2017-08-03T12:37:10.920Z,26.39
2017-08-03T12:38:10.871Z,26.67
2017-08-03T12:39:10.881Z,26.42
2017-08-03T12:40:10.854Z,25.95
2017-08-03T12:41:10.561Z,25.95
2017-08-03T12:42:10.831Z,26.24
2017-08-03T12:43:11.190Z,26.39
2017-08-03T12:44:10.820Z,26.37
2017-08-03T12:45:11.114Z,26.15
2017-08-03T12:46:10.820Z,26.13
2017-08-03T12:47:10.796Z,26.03
2017-08-03T12:48:10.780Z,26.11
2017-08-03T12:49:10.792Z,25.95
2017-08-03T12:50:11.079Z,25.82
2017-08-03T12:51:11.072Z,25.92
2017-08-03T12:52:11.062Z,26.1
2017-08-03T12:53:11.041Z,26.22
2017-08-03T12:54:11.029Z,26.08
2017-08-03T12:55:11.029Z,25.77